sensor_id;sensor_type;location;lat;lon;timestamp;P1;durP1;ratioP1;P2;durP2;ratioP2
65755;SDS011;69208;47.502;18.940;2023-12-22T00:00:45;16.23;;;8.55;;
65755;SDS011;69208;47.502;18.940;2023-12-22T00:01:50;11.50;;;8.13;;
65755;SDS011;69208;47.502;18.940;2023-12-22T00:02:53;13.98;;;8.15;;
65755;SDS011;69208;47.502;18.940;2023-12-22T00:03:57;11.12;;;8.45;;
65755;SDS011;69208;47.502;18.940;2023-12-22T00:05:00;10.57;;;8.20;;
65755;SDS011;69208;47.502;18.940;2023-12-22T00:06:03;9.98;;;7.72;;
65755;SDS011;69208;47.502;18.940;2023-12-22T00:07:06;11.32;;;8.38;;
65755;SDS011;69208;47.502;18.940;2023-12-22T00:08:09;13.80;;;8.82;;
65755;SDS011;69208;47.502;18.940;2023-12-22T00:09:12;12.25;;;8.23;;
65755;SDS011;69208;47.502;18.940;2023-12-22T00:10:15;11.93;;;8.80;;
65755;SDS011;69208;47.502;18.940;2023-12-22T00:11:18;11.43;;;8.38;;
65755;SDS011;69208;47.502;18.940;2023-12-22T00:12:21;10.07;;;7.93;;
65755;SDS011;69208;47.502;18.940;2023-12-22T00:13:24;12.88;;;8.43;;
65755;SDS011;69208;47.502;18.940;2023-12-22T00:14:27;10.80;;;8.18;;
65755;SDS011;69208;47.502;18.940;2023-12-22T00:15:30;10.85;;;8.32;;
65755;SDS011;69208;47.502;18.940;2023-12-22T00:16:33;10.25;;;7.82;;
65755;SDS011;69208;47.502;18.940;2023-12-22T00:17:35;16.98;;;8.75;;
65755;SDS011;69208;47.502;18.940;2023-12-22T00:18:38;11.85;;;8.63;;
65755;SDS011;69208;47.502;18.940;2023-12-22T00:19:41;11.40;;;8.25;;
65755;SDS011;69208;47.502;18.940;2023-12-22T00:20:44;12.18;;;9.25;;
65755;SDS011;69208;47.502;18.940;2023-12-22T00:21:47;13.18;;;9.27;;
65755;SDS011;69208;47.502;18.940;2023-12-22T00:22:50;11.15;;;8.60;;
65755;SDS011;69208;47.502;18.940;2023-12-22T00:23:53;11.95;;;8.73;;
65755;SDS011;69208;47.502;18.940;2023-12-22T00:24:57;13.30;;;9.10;;
65755;SDS011;69208;47.502;18.940;2023-12-22T00:25:59;12.23;;;9.07;;
65755;SDS011;69208;47.502;18.940;2023-12-22T00:27:02;13.52;;;9.38;;
65755;SDS011;69208;47.502;18.940;2023-12-22T00:28:05;12.68;;;9.02;;
65755;SDS011;69208;47.502;18.940;2023-12-22T00:29:08;13.62;;;9.95;;
65755;SDS011;69208;47.502;18.940;2023-12-22T00:30:12;14.52;;;9.55;;
65755;SDS011;69208;47.502;18.940;2023-12-22T00:31:14;14.10;;;9.75;;
65755;SDS011;69208;47.502;18.940;2023-12-22T00:32:17;13.32;;;10.07;;
65755;SDS011;69208;47.502;18.940;2023-12-22T00:33:20;12.07;;;10.20;;
65755;SDS011;69208;47.502;18.940;2023-12-22T00:34:24;12.15;;;9.40;;
65755;SDS011;69208;47.502;18.940;2023-12-22T00:35:27;14.90;;;11.35;;
65755;SDS011;69208;47.502;18.940;2023-12-22T00:36:31;14.55;;;10.60;;
65755;SDS011;69208;47.502;18.940;2023-12-22T00:37:34;16.12;;;10.05;;
65755;SDS011;69208;47.502;18.940;2023-12-22T00:38:37;15.18;;;9.85;;
65755;SDS011;69208;47.502;18.940;2023-12-22T00:39:39;13.18;;;10.00;;
65755;SDS011;69208;47.502;18.940;2023-12-22T00:40:42;12.50;;;9.35;;
65755;SDS011;69208;47.502;18.940;2023-12-22T00:41:45;11.65;;;9.25;;
65755;SDS011;69208;47.502;18.940;2023-12-22T00:42:48;12.43;;;9.13;;
65755;SDS011;69208;47.502;18.940;2023-12-22T00:43:51;12.57;;;9.18;;
65755;SDS011;69208;47.502;18.940;2023-12-22T00:44:54;16.55;;;8.63;;
65755;SDS011;69208;47.502;18.940;2023-12-22T00:45:57;11.57;;;8.82;;
65755;SDS011;69208;47.502;18.940;2023-12-22T00:47:00;10.43;;;7.65;;
65755;SDS011;69208;47.502;18.940;2023-12-22T00:48:03;12.00;;;8.48;;
65755;SDS011;69208;47.502;18.940;2023-12-22T00:49:06;10.98;;;7.57;;
65755;SDS011;69208;47.502;18.940;2023-12-22T00:50:09;10.23;;;7.30;;
65755;SDS011;69208;47.502;18.940;2023-12-22T00:51:12;11.98;;;8.10;;
65755;SDS011;69208;47.502;18.940;2023-12-22T00:52:16;10.43;;;6.93;;
65755;SDS011;69208;47.502;18.940;2023-12-22T00:53:19;10.38;;;6.90;;
65755;SDS011;69208;47.502;18.940;2023-12-22T00:54:22;10.27;;;6.60;;
65755;SDS011;69208;47.502;18.940;2023-12-22T00:55:25;9.35;;;7.18;;
65755;SDS011;69208;47.502;18.940;2023-12-22T00:56:28;9.50;;;7.20;;
65755;SDS011;69208;47.502;18.940;2023-12-22T00:57:31;8.65;;;6.20;;
65755;SDS011;69208;47.502;18.940;2023-12-22T00:58:33;8.48;;;6.62;;
65755;SDS011;69208;47.502;18.940;2023-12-22T00:59:36;9.82;;;6.10;;
65755;SDS011;69208;47.502;18.940;2023-12-22T01:00:39;9.32;;;6.75;;
65755;SDS011;69208;47.502;18.940;2023-12-22T01:01:42;9.10;;;6.43;;
65755;SDS011;69208;47.502;18.940;2023-12-22T01:02:47;11.02;;;6.78;;
65755;SDS011;69208;47.502;18.940;2023-12-22T01:03:50;9.02;;;6.62;;
65755;SDS011;69208;47.502;18.940;2023-12-22T01:04:53;7.90;;;6.03;;
65755;SDS011;69208;47.502;18.940;2023-12-22T01:05:56;7.35;;;5.70;;
65755;SDS011;69208;47.502;18.940;2023-12-22T01:07:00;9.07;;;5.68;;
65755;SDS011;69208;47.502;18.940;2023-12-22T01:08:03;9.10;;;5.87;;
65755;SDS011;69208;47.502;18.940;2023-12-22T01:09:06;7.60;;;5.50;;
65755;SDS011;69208;47.502;18.940;2023-12-22T01:10:10;7.93;;;5.53;;
65755;SDS011;69208;47.502;18.940;2023-12-22T01:11:14;8.07;;;5.60;;
65755;SDS011;69208;47.502;18.940;2023-12-22T01:12:17;8.05;;;6.15;;
65755;SDS011;69208;47.502;18.940;2023-12-22T01:13:20;7.50;;;5.60;;
65755;SDS011;69208;47.502;18.940;2023-12-22T01:14:23;7.85;;;5.75;;
65755;SDS011;69208;47.502;18.940;2023-12-22T01:15:26;8.70;;;6.18;;
65755;SDS011;69208;47.502;18.940;2023-12-22T01:16:29;7.45;;;5.53;;
65755;SDS011;69208;47.502;18.940;2023-12-22T01:17:32;8.93;;;5.97;;
65755;SDS011;69208;47.502;18.940;2023-12-22T01:18:35;12.02;;;6.10;;
65755;SDS011;69208;47.502;18.940;2023-12-22T01:19:38;8.38;;;5.40;;
65755;SDS011;69208;47.502;18.940;2023-12-22T01:20:40;8.27;;;4.97;;
65755;SDS011;69208;47.502;18.940;2023-12-22T01:21:44;6.78;;;5.30;;
65755;SDS011;69208;47.502;18.940;2023-12-22T01:22:49;8.15;;;5.87;;
65755;SDS011;69208;47.502;18.940;2023-12-22T01:23:52;7.50;;;5.05;;
65755;SDS011;69208;47.502;18.940;2023-12-22T01:24:54;7.25;;;4.85;;
65755;SDS011;69208;47.502;18.940;2023-12-22T01:25:57;7.47;;;4.85;;
65755;SDS011;69208;47.502;18.940;2023-12-22T01:27:00;7.32;;;4.37;;
65755;SDS011;69208;47.502;18.940;2023-12-22T01:28:03;5.50;;;4.10;;
65755;SDS011;69208;47.502;18.940;2023-12-22T01:29:07;6.45;;;4.20;;
65755;SDS011;69208;47.502;18.940;2023-12-22T01:30:10;6.65;;;4.47;;
65755;SDS011;69208;47.502;18.940;2023-12-22T01:31:13;5.82;;;4.20;;
65755;SDS011;69208;47.502;18.940;2023-12-22T01:32:16;6.40;;;4.32;;
65755;SDS011;69208;47.502;18.940;2023-12-22T01:33:19;6.03;;;4.35;;
65755;SDS011;69208;47.502;18.940;2023-12-22T01:34:22;8.70;;;4.68;;
65755;SDS011;69208;47.502;18.940;2023-12-22T01:35:25;6.80;;;4.15;;
65755;SDS011;69208;47.502;18.940;2023-12-22T01:36:28;6.30;;;4.18;;
65755;SDS011;69208;47.502;18.940;2023-12-22T01:37:31;5.72;;;4.07;;
65755;SDS011;69208;47.502;18.940;2023-12-22T01:38:34;5.72;;;3.87;;
65755;SDS011;69208;47.502;18.940;2023-12-22T01:39:37;6.05;;;3.75;;
65755;SDS011;69208;47.502;18.940;2023-12-22T01:40:40;6.57;;;3.75;;
65755;SDS011;69208;47.502;18.940;2023-12-22T01:41:43;5.62;;;3.72;;
65755;SDS011;69208;47.502;18.940;2023-12-22T01:42:46;5.62;;;3.72;;
65755;SDS011;69208;47.502;18.940;2023-12-22T01:43:50;5.55;;;3.17;;
65755;SDS011;69208;47.502;18.940;2023-12-22T01:44:53;5.37;;;3.00;;
65755;SDS011;69208;47.502;18.940;2023-12-22T01:45:57;4.65;;;3.10;;
65755;SDS011;69208;47.502;18.940;2023-12-22T01:47:02;4.97;;;3.17;;
65755;SDS011;69208;47.502;18.940;2023-12-22T01:48:05;7.10;;;3.25;;
65755;SDS011;69208;47.502;18.940;2023-12-22T01:49:09;3.72;;;2.75;;
65755;SDS011;69208;47.502;18.940;2023-12-22T01:50:13;4.85;;;3.03;;
65755;SDS011;69208;47.502;18.940;2023-12-22T01:51:18;5.15;;;3.05;;
65755;SDS011;69208;47.502;18.940;2023-12-22T01:52:21;4.35;;;3.12;;
65755;SDS011;69208;47.502;18.940;2023-12-22T01:53:25;4.28;;;2.55;;
65755;SDS011;69208;47.502;18.940;2023-12-22T01:54:29;4.90;;;3.10;;
65755;SDS011;69208;47.502;18.940;2023-12-22T01:55:32;5.87;;;2.72;;
65755;SDS011;69208;47.502;18.940;2023-12-22T01:56:36;3.67;;;2.65;;
65755;SDS011;69208;47.502;18.940;2023-12-22T01:57:39;4.57;;;2.60;;
65755;SDS011;69208;47.502;18.940;2023-12-22T01:58:44;4.53;;;2.75;;
65755;SDS011;69208;47.502;18.940;2023-12-22T01:59:47;3.53;;;2.42;;
65755;SDS011;69208;47.502;18.940;2023-12-22T02:00:54;3.95;;;2.62;;
65755;SDS011;69208;47.502;18.940;2023-12-22T02:02:02;3.08;;;2.28;;
65755;SDS011;69208;47.502;18.940;2023-12-22T02:03:06;3.75;;;2.58;;
65755;SDS011;69208;47.502;18.940;2023-12-22T02:04:11;3.12;;;2.30;;
65755;SDS011;69208;47.502;18.940;2023-12-22T02:05:17;2.92;;;2.17;;
65755;SDS011;69208;47.502;18.940;2023-12-22T02:06:20;3.45;;;2.40;;
65755;SDS011;69208;47.502;18.940;2023-12-22T02:07:23;3.53;;;2.10;;
65755;SDS011;69208;47.502;18.940;2023-12-22T02:08:26;3.33;;;2.15;;
65755;SDS011;69208;47.502;18.940;2023-12-22T02:09:34;3.37;;;2.22;;
65755;SDS011;69208;47.502;18.940;2023-12-22T02:10:38;2.60;;;1.90;;
65755;SDS011;69208;47.502;18.940;2023-12-22T02:11:41;2.00;;;1.80;;
65755;SDS011;69208;47.502;18.940;2023-12-22T02:12:44;2.83;;;2.10;;
65755;SDS011;69208;47.502;18.940;2023-12-22T02:13:47;3.85;;;2.25;;
65755;SDS011;69208;47.502;18.940;2023-12-22T02:14:50;2.97;;;2.10;;
65755;SDS011;69208;47.502;18.940;2023-12-22T02:15:55;3.47;;;2.10;;
65755;SDS011;69208;47.502;18.940;2023-12-22T02:17:14;2.80;;;1.90;;
65755;SDS011;69208;47.502;18.940;2023-12-22T02:18:26;5.78;;;2.10;;
65755;SDS011;69208;47.502;18.940;2023-12-22T02:20:39;2.50;;;1.75;;
65755;SDS011;69208;47.502;18.940;2023-12-22T02:23:11;3.55;;;2.00;;
65755;SDS011;69208;47.502;18.940;2023-12-22T02:24:14;2.35;;;1.77;;
65755;SDS011;69208;47.502;18.940;2023-12-22T02:25:17;4.37;;;1.95;;
65755;SDS011;69208;47.502;18.940;2023-12-22T02:28:48;5.75;;;2.25;;
65755;SDS011;69208;47.502;18.940;2023-12-22T02:29:54;3.50;;;2.10;;
65755;SDS011;69208;47.502;18.940;2023-12-22T02:32:24;2.90;;;2.00;;
65755;SDS011;69208;47.502;18.940;2023-12-22T02:33:32;3.08;;;1.98;;
65755;SDS011;69208;47.502;18.940;2023-12-22T02:34:38;3.12;;;2.08;;
65755;SDS011;69208;47.502;18.940;2023-12-22T02:35:44;2.72;;;1.80;;
65755;SDS011;69208;47.502;18.940;2023-12-22T02:36:51;3.35;;;2.05;;
65755;SDS011;69208;47.502;18.940;2023-12-22T02:37:57;2.85;;;1.85;;
65755;SDS011;69208;47.502;18.940;2023-12-22T02:39:02;2.53;;;1.90;;
65755;SDS011;69208;47.502;18.940;2023-12-22T02:40:07;2.45;;;1.80;;
65755;SDS011;69208;47.502;18.940;2023-12-22T02:41:12;3.47;;;1.87;;
65755;SDS011;69208;47.502;18.940;2023-12-22T02:42:16;2.80;;;1.92;;
65755;SDS011;69208;47.502;18.940;2023-12-22T02:43:21;4.12;;;1.80;;
65755;SDS011;69208;47.502;18.940;2023-12-22T02:44:24;2.65;;;1.90;;
65755;SDS011;69208;47.502;18.940;2023-12-22T02:45:28;2.03;;;1.70;;
65755;SDS011;69208;47.502;18.940;2023-12-22T02:46:33;3.87;;;2.00;;
65755;SDS011;69208;47.502;18.940;2023-12-22T02:47:36;2.22;;;1.90;;
65755;SDS011;69208;47.502;18.940;2023-12-22T02:48:39;2.83;;;1.85;;
65755;SDS011;69208;47.502;18.940;2023-12-22T02:49:42;3.12;;;2.00;;
65755;SDS011;69208;47.502;18.940;2023-12-22T02:50:45;3.78;;;1.80;;
65755;SDS011;69208;47.502;18.940;2023-12-22T02:51:49;2.08;;;1.70;;
65755;SDS011;69208;47.502;18.940;2023-12-22T02:52:52;3.45;;;2.00;;
65755;SDS011;69208;47.502;18.940;2023-12-22T02:53:55;2.60;;;1.80;;
65755;SDS011;69208;47.502;18.940;2023-12-22T02:54:58;3.50;;;1.90;;
65755;SDS011;69208;47.502;18.940;2023-12-22T02:56:01;3.15;;;2.00;;
65755;SDS011;69208;47.502;18.940;2023-12-22T02:57:06;2.47;;;1.77;;
65755;SDS011;69208;47.502;18.940;2023-12-22T02:58:10;2.50;;;1.58;;
65755;SDS011;69208;47.502;18.940;2023-12-22T02:59:13;2.78;;;1.70;;
65755;SDS011;69208;47.502;18.940;2023-12-22T03:00:16;1.95;;;1.50;;
65755;SDS011;69208;47.502;18.940;2023-12-22T03:01:19;6.53;;;1.70;;
65755;SDS011;69208;47.502;18.940;2023-12-22T03:02:23;2.53;;;1.70;;
65755;SDS011;69208;47.502;18.940;2023-12-22T03:03:26;2.72;;;1.80;;
65755;SDS011;69208;47.502;18.940;2023-12-22T03:04:29;2.72;;;1.70;;
65755;SDS011;69208;47.502;18.940;2023-12-22T03:05:32;1.90;;;1.52;;
65755;SDS011;69208;47.502;18.940;2023-12-22T03:06:35;2.67;;;1.55;;
65755;SDS011;69208;47.502;18.940;2023-12-22T03:07:38;1.40;;;1.30;;
65755;SDS011;69208;47.502;18.940;2023-12-22T03:08:41;1.50;;;1.40;;
65755;SDS011;69208;47.502;18.940;2023-12-22T03:09:44;2.60;;;1.62;;
65755;SDS011;69208;47.502;18.940;2023-12-22T03:10:47;2.65;;;1.52;;
65755;SDS011;69208;47.502;18.940;2023-12-22T03:11:50;2.37;;;1.50;;
65755;SDS011;69208;47.502;18.940;2023-12-22T03:12:57;1.42;;;1.33;;
65755;SDS011;69208;47.502;18.940;2023-12-22T03:14:00;1.40;;;1.30;;
65755;SDS011;69208;47.502;18.940;2023-12-22T03:15:03;2.33;;;1.50;;
65755;SDS011;69208;47.502;18.940;2023-12-22T03:16:09;1.58;;;1.17;;
65755;SDS011;69208;47.502;18.940;2023-12-22T03:17:12;1.23;;;1.12;;
65755;SDS011;69208;47.502;18.940;2023-12-22T03:18:15;1.60;;;1.30;;
65755;SDS011;69208;47.502;18.940;2023-12-22T03:19:18;1.50;;;1.40;;
65755;SDS011;69208;47.502;18.940;2023-12-22T03:20:21;2.00;;;1.35;;
65755;SDS011;69208;47.502;18.940;2023-12-22T03:21:24;1.83;;;1.25;;
65755;SDS011;69208;47.502;18.940;2023-12-22T03:22:27;2.30;;;1.30;;
65755;SDS011;69208;47.502;18.940;2023-12-22T03:23:30;1.10;;;1.05;;
65755;SDS011;69208;47.502;18.940;2023-12-22T03:24:33;1.40;;;1.20;;
65755;SDS011;69208;47.502;18.940;2023-12-22T03:25:37;4.18;;;1.40;;
65755;SDS011;69208;47.502;18.940;2023-12-22T03:26:40;1.40;;;1.30;;
65755;SDS011;69208;47.502;18.940;2023-12-22T03:27:43;1.27;;;1.10;;
65755;SDS011;69208;47.502;18.940;2023-12-22T03:28:46;2.15;;;1.35;;
65755;SDS011;69208;47.502;18.940;2023-12-22T03:29:49;1.30;;;1.20;;
65755;SDS011;69208;47.502;18.940;2023-12-22T03:30:51;1.80;;;1.20;;
65755;SDS011;69208;47.502;18.940;2023-12-22T03:31:54;3.05;;;1.30;;
65755;SDS011;69208;47.502;18.940;2023-12-22T03:32:57;2.53;;;1.23;;
65755;SDS011;69208;47.502;18.940;2023-12-22T03:34:00;1.70;;;1.30;;
65755;SDS011;69208;47.502;18.940;2023-12-22T03:35:03;1.20;;;1.10;;
65755;SDS011;69208;47.502;18.940;2023-12-22T03:36:07;1.27;;;1.12;;
65755;SDS011;69208;47.502;18.940;2023-12-22T03:37:10;1.23;;;1.15;;
65755;SDS011;69208;47.502;18.940;2023-12-22T03:38:12;1.73;;;1.10;;
65755;SDS011;69208;47.502;18.940;2023-12-22T03:39:15;3.87;;;1.20;;
65755;SDS011;69208;47.502;18.940;2023-12-22T03:40:19;2.45;;;1.12;;
65755;SDS011;69208;47.502;18.940;2023-12-22T03:41:21;2.05;;;1.20;;
65755;SDS011;69208;47.502;18.940;2023-12-22T03:42:24;1.55;;;1.10;;
65755;SDS011;69208;47.502;18.940;2023-12-22T03:43:27;2.33;;;1.20;;
65755;SDS011;69208;47.502;18.940;2023-12-22T03:44:32;2.15;;;1.10;;
65755;SDS011;69208;47.502;18.940;2023-12-22T03:45:35;2.53;;;1.35;;
65755;SDS011;69208;47.502;18.940;2023-12-22T03:46:38;2.50;;;1.10;;
65755;SDS011;69208;47.502;18.940;2023-12-22T03:47:41;2.47;;;1.30;;
65755;SDS011;69208;47.502;18.940;2023-12-22T03:48:44;1.77;;;1.30;;
65755;SDS011;69208;47.502;18.940;2023-12-22T03:49:49;1.70;;;1.20;;
65755;SDS011;69208;47.502;18.940;2023-12-22T03:50:52;1.15;;;1.00;;
65755;SDS011;69208;47.502;18.940;2023-12-22T03:51:55;2.65;;;1.20;;
65755;SDS011;69208;47.502;18.940;2023-12-22T03:52:58;2.53;;;1.10;;
65755;SDS011;69208;47.502;18.940;2023-12-22T03:54:01;4.68;;;1.30;;
65755;SDS011;69208;47.502;18.940;2023-12-22T03:55:05;2.05;;;1.10;;
65755;SDS011;69208;47.502;18.940;2023-12-22T03:56:08;3.50;;;1.20;;
65755;SDS011;69208;47.502;18.940;2023-12-22T03:57:12;8.00;;;1.60;;
65755;SDS011;69208;47.502;18.940;2023-12-22T03:58:15;2.37;;;1.10;;
65755;SDS011;69208;47.502;18.940;2023-12-22T03:59:18;3.37;;;1.35;;
65755;SDS011;69208;47.502;18.940;2023-12-22T04:00:21;2.10;;;1.20;;
65755;SDS011;69208;47.502;18.940;2023-12-22T04:01:24;3.00;;;1.35;;
65755;SDS011;69208;47.502;18.940;2023-12-22T04:02:28;1.83;;;1.10;;
65755;SDS011;69208;47.502;18.940;2023-12-22T04:03:31;2.22;;;1.00;;
65755;SDS011;69208;47.502;18.940;2023-12-22T04:04:37;2.50;;;1.02;;
65755;SDS011;69208;47.502;18.940;2023-12-22T04:05:40;3.20;;;1.20;;
65755;SDS011;69208;47.502;18.940;2023-12-22T04:06:43;2.25;;;1.10;;
65755;SDS011;69208;47.502;18.940;2023-12-22T04:07:46;2.42;;;1.42;;
65755;SDS011;69208;47.502;18.940;2023-12-22T04:08:49;2.90;;;1.30;;
65755;SDS011;69208;47.502;18.940;2023-12-22T04:09:52;3.37;;;1.23;;
65755;SDS011;69208;47.502;18.940;2023-12-22T04:10:55;3.20;;;1.40;;
65755;SDS011;69208;47.502;18.940;2023-12-22T04:11:58;3.47;;;1.52;;
65755;SDS011;69208;47.502;18.940;2023-12-22T04:13:01;3.92;;;1.30;;
65755;SDS011;69208;47.502;18.940;2023-12-22T04:14:05;2.05;;;1.20;;
65755;SDS011;69208;47.502;18.940;2023-12-22T04:15:07;6.25;;;1.65;;
65755;SDS011;69208;47.502;18.940;2023-12-22T04:16:11;2.28;;;1.45;;
65755;SDS011;69208;47.502;18.940;2023-12-22T04:17:14;3.67;;;1.23;;
65755;SDS011;69208;47.502;18.940;2023-12-22T04:18:17;5.03;;;1.27;;
65755;SDS011;69208;47.502;18.940;2023-12-22T04:19:20;1.90;;;1.20;;
65755;SDS011;69208;47.502;18.940;2023-12-22T04:20:23;4.90;;;1.50;;
65755;SDS011;69208;47.502;18.940;2023-12-22T04:21:26;5.15;;;1.42;;
65755;SDS011;69208;47.502;18.940;2023-12-22T04:22:29;2.42;;;1.30;;
65755;SDS011;69208;47.502;18.940;2023-12-22T04:23:32;5.47;;;1.50;;
65755;SDS011;69208;47.502;18.940;2023-12-22T04:24:35;4.25;;;1.40;;
65755;SDS011;69208;47.502;18.940;2023-12-22T04:25:38;2.75;;;1.30;;
65755;SDS011;69208;47.502;18.940;2023-12-22T04:26:41;4.95;;;1.50;;
65755;SDS011;69208;47.502;18.940;2023-12-22T04:27:44;2.60;;;1.37;;
65755;SDS011;69208;47.502;18.940;2023-12-22T04:28:47;3.03;;;1.17;;
65755;SDS011;69208;47.502;18.940;2023-12-22T04:29:51;2.70;;;1.30;;
65755;SDS011;69208;47.502;18.940;2023-12-22T04:30:54;4.35;;;1.58;;
65755;SDS011;69208;47.502;18.940;2023-12-22T04:31:56;2.60;;;1.20;;
65755;SDS011;69208;47.502;18.940;2023-12-22T04:33:00;1.40;;;1.25;;
65755;SDS011;69208;47.502;18.940;2023-12-22T04:34:03;3.53;;;1.20;;
65755;SDS011;69208;47.502;18.940;2023-12-22T04:35:06;2.62;;;1.20;;
65755;SDS011;69208;47.502;18.940;2023-12-22T04:36:09;4.03;;;1.37;;
65755;SDS011;69208;47.502;18.940;2023-12-22T04:37:12;1.75;;;1.25;;
65755;SDS011;69208;47.502;18.940;2023-12-22T04:38:15;3.95;;;1.40;;
65755;SDS011;69208;47.502;18.940;2023-12-22T04:39:18;3.60;;;1.20;;
65755;SDS011;69208;47.502;18.940;2023-12-22T04:40:23;1.37;;;1.10;;
65755;SDS011;69208;47.502;18.940;2023-12-22T04:41:26;2.28;;;1.15;;
65755;SDS011;69208;47.502;18.940;2023-12-22T04:42:30;2.12;;;1.23;;
65755;SDS011;69208;47.502;18.940;2023-12-22T04:43:33;3.47;;;1.08;;
65755;SDS011;69208;47.502;18.940;2023-12-22T04:44:36;2.97;;;1.35;;
65755;SDS011;69208;47.502;18.940;2023-12-22T04:45:39;2.05;;;1.20;;
65755;SDS011;69208;47.502;18.940;2023-12-22T04:46:42;3.42;;;1.27;;
65755;SDS011;69208;47.502;18.940;2023-12-22T04:47:46;1.90;;;1.12;;
65755;SDS011;69208;47.502;18.940;2023-12-22T04:48:49;4.43;;;1.45;;
65755;SDS011;69208;47.502;18.940;2023-12-22T04:49:52;3.92;;;1.30;;
65755;SDS011;69208;47.502;18.940;2023-12-22T04:50:55;4.25;;;1.30;;
65755;SDS011;69208;47.502;18.940;2023-12-22T04:51:58;2.65;;;1.25;;
65755;SDS011;69208;47.502;18.940;2023-12-22T04:53:04;3.65;;;1.42;;
65755;SDS011;69208;47.502;18.940;2023-12-22T04:54:06;4.95;;;1.58;;
65755;SDS011;69208;47.502;18.940;2023-12-22T04:55:09;3.05;;;1.52;;
65755;SDS011;69208;47.502;18.940;2023-12-22T04:56:13;5.10;;;1.73;;
65755;SDS011;69208;47.502;18.940;2023-12-22T04:57:16;4.22;;;1.83;;
65755;SDS011;69208;47.502;18.940;2023-12-22T04:58:20;3.62;;;1.50;;
65755;SDS011;69208;47.502;18.940;2023-12-22T04:59:23;2.62;;;1.48;;
65755;SDS011;69208;47.502;18.940;2023-12-22T05:00:26;3.62;;;1.70;;
65755;SDS011;69208;47.502;18.940;2023-12-22T05:01:29;3.47;;;1.83;;
65755;SDS011;69208;47.502;18.940;2023-12-22T05:02:32;4.12;;;1.67;;
65755;SDS011;69208;47.502;18.940;2023-12-22T05:03:35;3.60;;;1.55;;
65755;SDS011;69208;47.502;18.940;2023-12-22T05:04:38;5.80;;;1.50;;
65755;SDS011;69208;47.502;18.940;2023-12-22T05:05:41;4.82;;;1.48;;
65755;SDS011;69208;47.502;18.940;2023-12-22T05:06:44;13.07;;;1.65;;
65755;SDS011;69208;47.502;18.940;2023-12-22T05:07:47;2.92;;;1.35;;
65755;SDS011;69208;47.502;18.940;2023-12-22T05:08:52;5.25;;;1.35;;
65755;SDS011;69208;47.502;18.940;2023-12-22T05:09:55;2.45;;;1.30;;
65755;SDS011;69208;47.502;18.940;2023-12-22T05:10:58;3.10;;;1.50;;
65755;SDS011;69208;47.502;18.940;2023-12-22T05:12:01;3.15;;;1.45;;
65755;SDS011;69208;47.502;18.940;2023-12-22T05:13:05;3.92;;;1.50;;
65755;SDS011;69208;47.502;18.940;2023-12-22T05:14:09;3.55;;;1.55;;
65755;SDS011;69208;47.502;18.940;2023-12-22T05:15:12;4.85;;;1.70;;
65755;SDS011;69208;47.502;18.940;2023-12-22T05:16:15;4.05;;;1.60;;
65755;SDS011;69208;47.502;18.940;2023-12-22T05:17:18;5.25;;;1.48;;
65755;SDS011;69208;47.502;18.940;2023-12-22T05:18:21;3.33;;;1.45;;
65755;SDS011;69208;47.502;18.940;2023-12-22T05:19:24;3.62;;;1.35;;
65755;SDS011;69208;47.502;18.940;2023-12-22T05:20:27;2.92;;;1.65;;
65755;SDS011;69208;47.502;18.940;2023-12-22T05:21:30;3.87;;;1.60;;
65755;SDS011;69208;47.502;18.940;2023-12-22T05:22:33;2.47;;;1.30;;
65755;SDS011;69208;47.502;18.940;2023-12-22T05:23:38;3.78;;;1.40;;
65755;SDS011;69208;47.502;18.940;2023-12-22T05:24:41;2.85;;;1.30;;
65755;SDS011;69208;47.502;18.940;2023-12-22T05:25:44;1.45;;;1.12;;
65755;SDS011;69208;47.502;18.940;2023-12-22T05:26:47;1.85;;;1.35;;
65755;SDS011;69208;47.502;18.940;2023-12-22T05:27:51;3.55;;;1.50;;
65755;SDS011;69208;47.502;18.940;2023-12-22T05:28:54;4.00;;;1.58;;
65755;SDS011;69208;47.502;18.940;2023-12-22T05:29:57;4.55;;;1.60;;
65755;SDS011;69208;47.502;18.940;2023-12-22T05:31:04;2.95;;;1.48;;
65755;SDS011;69208;47.502;18.940;2023-12-22T05:32:07;4.55;;;1.60;;
65755;SDS011;69208;47.502;18.940;2023-12-22T05:33:10;2.20;;;1.33;;
65755;SDS011;69208;47.502;18.940;2023-12-22T05:34:14;3.83;;;1.60;;
65755;SDS011;69208;47.502;18.940;2023-12-22T05:35:17;3.65;;;1.50;;
65755;SDS011;69208;47.502;18.940;2023-12-22T05:36:20;11.50;;;1.92;;
65755;SDS011;69208;47.502;18.940;2023-12-22T05:37:23;2.55;;;1.55;;
65755;SDS011;69208;47.502;18.940;2023-12-22T05:38:26;3.90;;;1.90;;
65755;SDS011;69208;47.502;18.940;2023-12-22T05:39:29;4.53;;;2.10;;
65755;SDS011;69208;47.502;18.940;2023-12-22T05:40:32;6.87;;;2.42;;
65755;SDS011;69208;47.502;18.940;2023-12-22T05:41:35;7.43;;;2.62;;
65755;SDS011;69208;47.502;18.940;2023-12-22T05:42:40;5.68;;;2.30;;
65755;SDS011;69208;47.502;18.940;2023-12-22T05:43:43;6.82;;;2.40;;
65755;SDS011;69208;47.502;18.940;2023-12-22T05:44:46;5.25;;;2.40;;
65755;SDS011;69208;47.502;18.940;2023-12-22T05:45:52;4.62;;;2.10;;
65755;SDS011;69208;47.502;18.940;2023-12-22T05:46:56;3.67;;;1.58;;
65755;SDS011;69208;47.502;18.940;2023-12-22T05:48:01;6.95;;;1.92;;
65755;SDS011;69208;47.502;18.940;2023-12-22T05:49:04;4.68;;;1.75;;
65755;SDS011;69208;47.502;18.940;2023-12-22T05:50:08;4.87;;;1.65;;
65755;SDS011;69208;47.502;18.940;2023-12-22T05:51:13;4.22;;;1.62;;
65755;SDS011;69208;47.502;18.940;2023-12-22T05:52:16;3.08;;;1.50;;
65755;SDS011;69208;47.502;18.940;2023-12-22T05:53:19;4.53;;;1.90;;
65755;SDS011;69208;47.502;18.940;2023-12-22T05:54:22;5.65;;;1.83;;
65755;SDS011;69208;47.502;18.940;2023-12-22T05:55:28;3.50;;;1.58;;
65755;SDS011;69208;47.502;18.940;2023-12-22T05:56:32;4.50;;;1.98;;
65755;SDS011;69208;47.502;18.940;2023-12-22T05:57:35;2.85;;;1.50;;
65755;SDS011;69208;47.502;18.940;2023-12-22T05:58:38;4.95;;;2.08;;
65755;SDS011;69208;47.502;18.940;2023-12-22T05:59:41;4.68;;;1.65;;
65755;SDS011;69208;47.502;18.940;2023-12-22T06:00:44;4.87;;;1.90;;
65755;SDS011;69208;47.502;18.940;2023-12-22T06:01:47;4.78;;;1.80;;
65755;SDS011;69208;47.502;18.940;2023-12-22T06:02:50;5.68;;;1.80;;
65755;SDS011;69208;47.502;18.940;2023-12-22T06:03:52;4.50;;;1.80;;
65755;SDS011;69208;47.502;18.940;2023-12-22T06:04:56;4.53;;;1.80;;
65755;SDS011;69208;47.502;18.940;2023-12-22T06:05:59;3.40;;;1.65;;
65755;SDS011;69208;47.502;18.940;2023-12-22T06:07:05;3.75;;;1.52;;
65755;SDS011;69208;47.502;18.940;2023-12-22T06:08:08;7.15;;;1.80;;
65755;SDS011;69208;47.502;18.940;2023-12-22T06:09:12;5.95;;;1.77;;
65755;SDS011;69208;47.502;18.940;2023-12-22T06:10:15;6.15;;;1.85;;
65755;SDS011;69208;47.502;18.940;2023-12-22T06:11:18;4.55;;;1.85;;
65755;SDS011;69208;47.502;18.940;2023-12-22T06:12:21;3.00;;;1.67;;
65755;SDS011;69208;47.502;18.940;2023-12-22T06:13:24;7.12;;;1.95;;
65755;SDS011;69208;47.502;18.940;2023-12-22T06:14:27;5.82;;;1.90;;
65755;SDS011;69208;47.502;18.940;2023-12-22T06:15:31;2.97;;;1.52;;
65755;SDS011;69208;47.502;18.940;2023-12-22T06:16:33;3.53;;;1.58;;
65755;SDS011;69208;47.502;18.940;2023-12-22T06:17:36;2.72;;;1.40;;
65755;SDS011;69208;47.502;18.940;2023-12-22T06:18:40;4.55;;;1.70;;
65755;SDS011;69208;47.502;18.940;2023-12-22T06:19:43;7.35;;;1.95;;
65755;SDS011;69208;47.502;18.940;2023-12-22T06:20:46;6.12;;;2.10;;
65755;SDS011;69208;47.502;18.940;2023-12-22T06:21:49;5.82;;;1.70;;
65755;SDS011;69208;47.502;18.940;2023-12-22T06:22:52;3.72;;;1.55;;